Time;durP1;ratioP1;P1;durP2;ratioP2;P2;SDS_P1;SDS_P2;PMS_P1;PMS_P2;Temp;Humidity;BMP_temperature;BMP_pressure;BME280_temperature;BME280_humidity;BME280_pressure;Samples;Min_cycle;Max_cycle;Signal;HPM_P1;HPM_P2
2023/06/19 00:00:39;;;;;;;21.73;13.32;;;;;;;;;;5001034;28;20057;-60
2023/06/19 00:03:08;;;;;;;20.95;14.15;;;;;;;;;;5007523;28;20056;-59
2023/06/19 00:05:34;;;;;;;22.10;13.35;;;;;;;;;;5023229;28;20060;-59
2023/06/19 00:08:03;;;;;;;18.38;13.05;;;;;;;;;;5011693;28;20049;-60
2023/06/19 00:10:29;;;;;;;21.17;13.43;;;;;;;;;;5012410;28;20061;-60
2023/06/19 00:12:55;;;;;;;20.25;12.88;;;;;;;;;;5008714;28;20049;-59
2023/06/19 00:15:21;;;;;;;17.95;13.05;;;;;;;;;;5024411;28;20305;-59
2023/06/19 00:17:47;;;;;;;21.83;13.10;;;;;;;;;;5011264;28;20208;-59
2023/06/19 00:20:13;;;;;;;19.42;13.52;;;;;;;;;;5012483;28;20217;-60
2023/06/19 00:22:40;;;;;;;20.83;12.98;;;;;;;;;;5020384;28;20038;-60
2023/06/19 00:25:07;;;;;;;19.08;12.57;;;;;;;;;;5012462;28;20526;-60
2023/06/19 00:27:33;;;;;;;19.75;14.00;;;;;;;;;;5015134;28;20490;-59
2023/06/19 00:30:01;;;;;;;22.10;13.35;;;;;;;;;;5015868;28;20058;-59
2023/06/19 00:32:30;;;;;;;21.52;13.70;;;;;;;;;;5021152;28;20045;-60
2023/06/19 00:34:56;;;;;;;25.33;13.13;;;;;;;;;;5009746;28;20072;-59
2023/06/19 00:37:25;;;;;;;26.88;14.43;;;;;;;;;;5014160;28;20042;-60
2023/06/19 00:39:51;;;;;;;28.88;15.25;;;;;;;;;;5012858;28;20033;-60
2023/06/19 00:42:17;;;;;;;22.65;14.35;;;;;;;;;;5009198;28;20064;-60
2023/06/19 00:44:44;;;;;;;22.25;14.18;;;;;;;;;;5011901;28;20050;-60
2023/06/19 00:47:11;;;;;;;26.38;14.80;;;;;;;;;;5011477;28;20044;-60
2023/06/19 00:49:37;;;;;;;33.72;15.27;;;;;;;;;;5011531;28;20053;-60
2023/06/19 00:52:03;;;;;;;28.67;14.63;;;;;;;;;;5010695;28;20053;-59
2023/06/19 00:54:30;;;;;;;30.42;15.18;;;;;;;;;;5001301;28;20049;-60
2023/06/19 00:56:56;;;;;;;27.27;15.45;;;;;;;;;;5007086;28;20036;-60
2023/06/19 00:59:23;;;;;;;25.05;15.48;;;;;;;;;;5014897;28;20050;-59
2023/06/19 01:01:50;;;;;;;25.13;15.40;;;;;;;;;;5014679;28;20049;-60
2023/06/19 01:04:16;;;;;;;23.70;16.10;;;;;;;;;;5010374;28;20411;-60
2023/06/19 01:06:57;;;;;;;25.20;16.83;;;;;;;;;;5004966;28;20042;-60
2023/06/19 01:09:30;;;;;;;26.30;16.17;;;;;;;;;;5004094;28;20050;-59
2023/06/19 01:12:27;;;;;;;25.58;15.90;;;;;;;;;;4994892;28;20049;-60
2023/06/19 01:15:05;;;;;;;25.08;16.25;;;;;;;;;;4999599;28;20030;-60
2023/06/19 01:17:32;;;;;;;23.98;16.58;;;;;;;;;;5008709;28;20520;-60
2023/06/19 01:19:59;;;;;;;25.55;16.70;;;;;;;;;;5007753;28;20053;-60
2023/06/19 01:22:32;;;;;;;24.27;15.63;;;;;;;;;;5007344;28;20052;-60
2023/06/19 01:24:58;;;;;;;26.33;16.92;;;;;;;;;;5011859;28;20037;-59
2023/06/19 01:27:29;;;;;;;26.58;16.77;;;;;;;;;;5005925;28;20057;-60
2023/06/19 01:29:57;;;;;;;26.85;15.95;;;;;;;;;;5008918;28;20046;-59
2023/06/19 01:32:47;;;;;;;27.33;17.50;;;;;;;;;;5007981;28;20041;-60
2023/06/19 01:35:17;;;;;;;27.23;16.98;;;;;;;;;;5011119;28;20049;-59
2023/06/19 01:37:45;;;;;;;26.23;16.92;;;;;;;;;;5008647;28;20512;-59
2023/06/19 01:40:12;;;;;;;30.85;17.40;;;;;;;;;;5012431;28;20037;-60
2023/06/19 01:42:39;;;;;;;25.35;16.38;;;;;;;;;;5008816;28;20048;-59
2023/06/19 01:45:08;;;;;;;26.73;16.63;;;;;;;;;;5009815;28;20102;-59
2023/06/19 01:47:35;;;;;;;26.90;17.58;;;;;;;;;;5008307;28;20068;-60
2023/06/19 01:50:04;;;;;;;27.48;16.88;;;;;;;;;;5009348;28;20042;-60
2023/06/19 01:52:30;;;;;;;28.85;17.55;;;;;;;;;;5015533;28;20041;-59
2023/06/19 01:54:56;;;;;;;28.67;17.83;;;;;;;;;;5011043;28;20570;-59
2023/06/19 01:57:22;;;;;;;26.17;17.20;;;;;;;;;;5009489;28;20558;-59
2023/06/19 01:59:48;;;;;;;24.00;16.00;;;;;;;;;;5019675;28;20053;-60
2023/06/19 02:02:14;;;;;;;25.63;16.55;;;;;;;;;;5015477;28;20054;-60
2023/06/19 02:04:40;;;;;;;27.73;16.20;;;;;;;;;;5012061;28;20524;-59
2023/06/19 02:07:07;;;;;;;28.63;16.63;;;;;;;;;;5019584;28;20076;-59
2023/06/19 02:09:33;;;;;;;26.40;15.50;;;;;;;;;;5010198;28;20038;-59
2023/06/19 02:11:59;;;;;;;29.02;17.27;;;;;;;;;;5008419;28;20042;-61
2023/06/19 02:14:26;;;;;;;24.40;15.70;;;;;;;;;;5008634;28;20393;-60
2023/06/19 02:16:52;;;;;;;25.05;16.35;;;;;;;;;;5008252;28;20049;-59
2023/06/19 02:19:19;;;;;;;25.95;15.35;;;;;;;;;;5011969;28;20045;-59
2023/06/19 02:21:45;;;;;;;26.35;15.15;;;;;;;;;;5015311;28;20037;-60
2023/06/19 02:24:11;;;;;;;26.13;15.95;;;;;;;;;;5012419;28;20595;-60
2023/06/19 02:26:38;;;;;;;23.70;14.77;;;;;;;;;;5009153;28;20048;-60
2023/06/19 02:29:04;;;;;;;25.33;15.68;;;;;;;;;;5009992;28;20037;-59
2023/06/19 02:31:31;;;;;;;25.33;15.70;;;;;;;;;;5007992;28;20037;-59
2023/06/19 02:33:57;;;;;;;24.20;14.73;;;;;;;;;;5016038;28;20046;-59
2023/06/19 02:36:23;;;;;;;23.05;14.35;;;;;;;;;;5020283;28;20045;-59
2023/06/19 02:38:50;;;;;;;22.35;14.35;;;;;;;;;;5014295;28;20057;-59
2023/06/19 02:41:16;;;;;;;24.92;14.52;;;;;;;;;;5013032;28;20049;-59
2023/06/19 02:43:42;;;;;;;26.85;15.43;;;;;;;;;;5009885;28;20041;-59
2023/06/19 02:46:09;;;;;;;27.35;14.75;;;;;;;;;;5008118;28;20057;-59
2023/06/19 02:48:35;;;;;;;21.38;13.65;;;;;;;;;;5002010;28;20110;-59
2023/06/19 02:51:02;;;;;;;28.02;15.25;;;;;;;;;;5016867;28;20046;-59
2023/06/19 02:53:28;;;;;;;21.20;14.48;;;;;;;;;;5007239;28;20387;-58
2023/06/19 02:55:54;;;;;;;26.92;13.70;;;;;;;;;;5013974;28;20054;-59
2023/06/19 02:58:21;;;;;;;24.25;14.15;;;;;;;;;;5009325;28;20528;-59
2023/06/19 03:00:48;;;;;;;25.83;13.27;;;;;;;;;;5009570;28;20034;-59
2023/06/19 03:03:16;;;;;;;28.33;13.88;;;;;;;;;;5015456;28;20033;-59
2023/06/19 03:05:42;;;;;;;20.92;13.77;;;;;;;;;;5013632;28;20060;-59
2023/06/19 03:08:09;;;;;;;21.20;14.15;;;;;;;;;;5012642;28;20058;-59
2023/06/19 03:10:35;;;;;;;20.55;12.30;;;;;;;;;;5012303;28;20546;-60
2023/06/19 03:13:01;;;;;;;20.55;12.82;;;;;;;;;;5019618;28;20049;-58
2023/06/19 03:15:27;;;;;;;19.83;12.93;;;;;;;;;;5008273;28;20038;-59
2023/06/19 03:17:54;;;;;;;19.23;13.18;;;;;;;;;;5007637;28;20042;-59
2023/06/19 03:20:21;;;;;;;19.92;12.30;;;;;;;;;;5009318;28;20046;-59
2023/06/19 03:22:53;;;;;;;21.58;13.10;;;;;;;;;;5014938;28;20037;-60
2023/06/19 03:25:20;;;;;;;21.58;12.25;;;;;;;;;;5013184;28;20045;-59
2023/06/19 03:27:47;;;;;;;20.52;12.85;;;;;;;;;;5022491;28;20495;-59
2023/06/19 03:30:13;;;;;;;22.42;12.70;;;;;;;;;;5009119;28;20054;-60
2023/06/19 03:32:41;;;;;;;18.08;12.13;;;;;;;;;;5013516;28;20033;-59
2023/06/19 03:35:10;;;;;;;21.00;13.10;;;;;;;;;;5013184;28;20061;-60
2023/06/19 03:37:42;;;;;;;19.60;12.82;;;;;;;;;;5009501;28;20050;-59
2023/06/19 03:40:13;;;;;;;19.98;12.45;;;;;;;;;;5014368;28;20041;-59
2023/06/19 03:42:41;;;;;;;23.02;12.85;;;;;;;;;;5016872;28;20496;-59
2023/06/19 03:45:08;;;;;;;19.05;12.38;;;;;;;;;;5000272;28;20045;-59
2023/06/19 03:47:34;;;;;;;16.90;11.20;;;;;;;;;;5007872;28;20046;-58
2023/06/19 03:50:00;;;;;;;22.92;11.15;;;;;;;;;;5026732;28;20049;-59
2023/06/19 03:52:27;;;;;;;18.08;11.18;;;;;;;;;;5019765;28;20505;-58
2023/06/19 03:54:53;;;;;;;17.83;11.07;;;;;;;;;;5012158;28;20050;-58
2023/06/19 03:57:19;;;;;;;22.23;11.77;;;;;;;;;;5021522;28;20037;-59
2023/06/19 03:59:46;;;;;;;18.73;10.15;;;;;;;;;;5014566;28;20034;-59
2023/06/19 04:02:12;;;;;;;18.13;9.77;;;;;;;;;;5012708;28;20037;-59
2023/06/19 04:04:38;;;;;;;16.35;9.50;;;;;;;;;;5009546;28;20050;-60
2023/06/19 04:07:04;;;;;;;15.25;9.00;;;;;;;;;;4997609;28;20049;-60
2023/06/19 04:09:31;;;;;;;17.40;8.95;;;;;;;;;;5022710;28;20042;-60
2023/06/19 04:11:57;;;;;;;16.45;7.65;;;;;;;;;;5006334;28;20150;-60
2023/06/19 04:14:24;;;;;;;12.43;7.47;;;;;;;;;;5018406;28;20041;-60
2023/06/19 04:16:50;;;;;;;12.23;7.53;;;;;;;;;;5005638;28;20547;-61
2023/06/19 04:19:16;;;;;;;15.18;7.45;;;;;;;;;;4997164;28;20412;-60
2023/06/19 04:21:42;;;;;;;15.95;7.97;;;;;;;;;;4995269;28;20487;-60
2023/06/19 04:24:09;;;;;;;14.57;7.88;;;;;;;;;;5003013;28;20789;-60
2023/06/19 04:26:36;;;;;;;12.25;7.10;;;;;;;;;;5001123;28;20049;-61
2023/06/19 04:29:03;;;;;;;15.50;7.18;;;;;;;;;;5001288;28;20045;-61
2023/06/19 04:31:30;;;;;;;13.48;7.40;;;;;;;;;;5003929;28;20034;-60
2023/06/19 04:33:56;;;;;;;12.75;7.30;;;;;;;;;;5001863;28;20030;-59
2023/06/19 04:36:22;;;;;;;15.57;7.68;;;;;;;;;;5007038;28;20033;-59
2023/06/19 04:38:51;;;;;;;11.82;6.50;;;;;;;;;;5019245;28;20034;-59
2023/06/19 04:41:20;;;;;;;13.90;6.65;;;;;;;;;;5015176;28;20029;-59
2023/06/19 04:43:46;;;;;;;10.02;6.28;;;;;;;;;;5011430;28;20042;-60
2023/06/19 04:46:12;;;;;;;11.68;6.30;;;;;;;;;;5010853;28;20404;-59
2023/06/19 04:48:40;;;;;;;10.82;6.40;;;;;;;;;;5011324;28;20061;-59
2023/06/19 04:51:06;;;;;;;9.63;5.82;;;;;;;;;;5009605;28;20658;-59
2023/06/19 04:53:32;;;;;;;10.15;5.68;;;;;;;;;;5011073;28;20052;-59
2023/06/19 04:55:58;;;;;;;10.02;5.80;;;;;;;;;;5011561;28;20037;-59
2023/06/19 04:58:24;;;;;;;13.65;5.25;;;;;;;;;;5010762;28;20084;-60
2023/06/19 05:00:52;;;;;;;9.02;4.53;;;;;;;;;;5010924;28;20050;-60
2023/06/19 05:03:18;;;;;;;7.75;4.43;;;;;;;;;;5004403;28;20659;-59
2023/06/19 05:05:44;;;;;;;9.02;4.43;;;;;;;;;;5021176;28;20057;-58
2023/06/19 05:08:10;;;;;;;7.88;4.18;;;;;;;;;;5011021;28;20038;-59
2023/06/19 05:10:36;;;;;;;7.95;4.53;;;;;;;;;;5011568;28;20038;-59
2023/06/19 05:13:03;;;;;;;9.10;5.45;;;;;;;;;;5010368;28;20038;-60
2023/06/19 05:15:29;;;;;;;7.90;4.40;;;;;;;;;;5011087;28;20523;-59
2023/06/19 05:17:55;;;;;;;7.80;4.60;;;;;;;;;;5010086;28;20046;-60
2023/06/19 05:20:21;;;;;;;8.98;4.78;;;;;;;;;;5007839;28;20037;-59
2023/06/19 05:22:47;;;;;;;9.05;5.22;;;;;;;;;;5004200;28;20042;-60
2023/06/19 05:25:13;;;;;;;7.32;4.50;;;;;;;;;;5022090;28;20537;-60
2023/06/19 05:27:39;;;;;;;8.23;4.90;;;;;;;;;;5010954;28;20038;-59
2023/06/19 05:30:06;;;;;;;8.75;4.43;;;;;;;;;;4998421;28;20041;-60
2023/06/19 05:32:32;;;;;;;8.25;5.00;;;;;;;;;;4991739;28;20491;-60
2023/06/19 05:34:59;;;;;;;8.43;4.72;;;;;;;;;;5009444;28;20048;-59
2023/06/19 05:37:26;;;;;;;9.73;4.97;;;;;;;;;;5010667;28;20056;-61
2023/06/19 05:39:53;;;;;;;8.18;4.70;;;;;;;;;;5018139;28;20095;-60
2023/06/19 05:42:19;;;;;;;6.93;4.05;;;;;;;;;;5008499;28;20507;-60
2023/06/19 05:44:45;;;;;;;5.50;3.65;;;;;;;;;;5010629;28;20053;-60
2023/06/19 05:47:11;;;;;;;6.68;4.28;;;;;;;;;;5010479;28;20042;-60
2023/06/19 05:49:37;;;;;;;7.20;3.88;;;;;;;;;;5010544;28;20033;-60
2023/06/19 05:52:04;;;;;;;8.43;4.47;;;;;;;;;;5009219;28;20061;-59
2023/06/19 05:54:30;;;;;;;9.32;4.47;;;;;;;;;;4987664;28;20144;-60
2023/06/19 05:56:56;;;;;;;10.07;4.28;;;;;;;;;;5020860;28;20511;-59
2023/06/19 05:59:22;;;;;;;7.57;4.55;;;;;;;;;;5010068;28;20045;-59
2023/06/19 06:01:50;;;;;;;6.95;3.92;;;;;;;;;;5000531;28;20038;-60
2023/06/19 06:04:17;;;;;;;7.25;4.30;;;;;;;;;;5015515;28;20041;-60
2023/06/19 06:06:43;;;;;;;7.28;4.30;;;;;;;;;;5009813;28;20038;-59
2023/06/19 06:09:12;;;;;;;7.07;3.90;;;;;;;;;;5005307;28;20041;-59
2023/06/19 06:11:38;;;;;;;7.50;4.57;;;;;;;;;;5016693;28;20049;-60
2023/06/19 06:14:04;;;;;;;9.27;4.30;;;;;;;;;;5004663;28;20053;-60
2023/06/19 06:16:30;;;;;;;7.32;4.13;;;;;;;;;;5005543;28;20045;-61
2023/06/19 06:18:56;;;;;;;7.38;4.25;;;;;;;;;;5004264;28;20033;-60
2023/06/19 06:21:22;;;;;;;8.10;4.10;;;;;;;;;;5013950;28;20037;-60
2023/06/19 06:23:48;;;;;;;7.55;4.43;;;;;;;;;;5015256;28;20439;-60
2023/06/19 06:26:14;;;;;;;7.50;4.28;;;;;;;;;;5009997;28;20045;-60
2023/06/19 06:28:41;;;;;;;7.90;4.60;;;;;;;;;;5010149;28;20037;-60
2023/06/19 06:31:07;;;;;;;8.48;4.45;;;;;;;;;;5019083;28;20061;-60
2023/06/19 06:33:33;;;;;;;8.07;4.50;;;;;;;;;;5009280;28;20034;-60
2023/06/19 06:35:59;;;;;;;8.05;4.78;;;;;;;;;;5009750;28;20052;-60
2023/06/19 06:38:25;;;;;;;7.80;4.50;;;;;;;;;;5016529;28;20634;-59
2023/06/19 06:40:52;;;;;;;7.05;4.20;;;;;;;;;;5017386;28;20029;-60
2023/06/19 06:43:18;;;;;;;7.38;4.32;;;;;;;;;;5014618;28;20418;-59
2023/06/19 06:45:44;;;;;;;8.50;4.03;;;;;;;;;;5008928;28;20512;-60
2023/06/19 06:48:10;;;;;;;8.50;4.30;;;;;;;;;;5016175;28;20033;-59
2023/06/19 06:50:36;;;;;;;6.35;4.03;;;;;;;;;;5012583;28;20044;-59
2023/06/19 06:53:02;;;;;;;6.88;4.20;;;;;;;;;;5023421;28;20057;-59
2023/06/19 06:55:28;;;;;;;6.65;4.18;;;;;;;;;;5021269;28;20038;-60
2023/06/19 06:57:55;;;;;;;7.63;4.22;;;;;;;;;;5015644;28;20050;-58
2023/06/19 07:00:21;;;;;;;7.10;4.05;;;;;;;;;;5015763;28;20046;-60
2023/06/19 07:02:50;;;;;;;8.45;5.55;;;;;;;;;;5006176;28;20050;-60
2023/06/19 07:05:16;;;;;;;9.00;5.18;;;;;;;;;;5013829;28;20080;-60
2023/06/19 07:07:42;;;;;;;11.70;5.43;;;;;;;;;;5015825;28;20049;-60
2023/06/19 07:10:09;;;;;;;8.30;5.13;;;;;;;;;;5015194;28;20368;-59
2023/06/19 07:12:43;;;;;;;10.73;5.35;;;;;;;;;;5024922;28;20067;-59
2023/06/19 07:15:09;;;;;;;12.32;7.35;;;;;;;;;;5011967;28;20702;-60
2023/06/19 07:17:35;;;;;;;11.50;6.57;;;;;;;;;;5014394;28;20550;-59
2023/06/19 07:20:02;;;;;;;8.82;5.72;;;;;;;;;;5015555;28;20037;-59
2023/06/19 07:22:28;;;;;;;9.77;6.10;;;;;;;;;;5014999;28;20065;-60
2023/06/19 07:24:54;;;;;;;10.10;5.82;;;;;;;;;;5015854;28;20038;-60
2023/06/19 07:27:20;;;;;;;20.40;10.63;;;;;;;;;;5014713;28;20053;-60
2023/06/19 07:29:46;;;;;;;7.75;4.95;;;;;;;;;;5026309;28;20042;-59
2023/06/19 07:32:13;;;;;;;9.20;5.95;;;;;;;;;;5014141;28;20061;-59
2023/06/19 07:34:39;;;;;;;7.82;5.28;;;;;;;;;;5014024;28;20033;-59
2023/06/19 07:37:05;;;;;;;8.63;6.13;;;;;;;;;;5017412;28;20030;-59
2023/06/19 07:39:31;;;;;;;11.10;6.75;;;;;;;;;;5026436;28;20626;-59
2023/06/19 07:41:57;;;;;;;10.40;6.20;;;;;;;;;;5015076;28;20045;-59
2023/06/19 07:44:24;;;;;;;11.50;5.93;;;;;;;;;;5012469;28;20040;-59
2023/06/19 07:46:50;;;;;;;8.68;5.70;;;;;;;;;;5012629;28;20369;-59
2023/06/19 07:49:16;;;;;;;9.15;5.18;;;;;;;;;;5014322;28;20046;-59
2023/06/19 07:51:42;;;;;;;7.45;5.65;;;;;;;;;;5010101;28;20140;-60
2023/06/19 07:54:08;;;;;;;8.65;5.78;;;;;;;;;;5020634;28;20038;-59
2023/06/19 07:56:34;;;;;;;8.90;6.05;;;;;;;;;;5008717;28;20061;-59
2023/06/19 07:59:00;;;;;;;8.32;5.57;;;;;;;;;;5006278;28;20419;-59
2023/06/19 08:01:27;;;;;;;7.68;5.50;;;;;;;;;;5005537;28;20037;-59
2023/06/19 08:03:53;;;;;;;9.70;5.88;;;;;;;;;;5012128;28;20049;-59
2023/06/19 08:06:19;;;;;;;10.40;6.43;;;;;;;;;;5012693;28;20044;-59
2023/06/19 08:08:45;;;;;;;8.77;5.20;;;;;;;;;;5007008;28;20042;-59
2023/06/19 08:11:11;;;;;;;6.18;4.90;;;;;;;;;;5012276;28;20373;-58
2023/06/19 08:13:37;;;;;;;4.60;3.85;;;;;;;;;;5011010;28;20068;-59
2023/06/19 08:16:04;;;;;;;3.97;2.50;;;;;;;;;;5011710;28;20522;-59
2023/06/19 08:18:30;;;;;;;4.57;3.60;;;;;;;;;;5011482;28;20045;-58
2023/06/19 08:20:56;;;;;;;6.55;4.25;;;;;;;;;;5012379;28;20038;-59
2023/06/19 08:23:23;;;;;;;6.90;4.68;;;;;;;;;;5000773;28;20080;-59
2023/06/19 08:25:50;;;;;;;5.93;4.13;;;;;;;;;;5018173;28;20046;-59
2023/06/19 08:28:17;;;;;;;5.05;3.95;;;;;;;;;;5010585;28;20044;-59
2023/06/19 08:30:45;;;;;;;6.40;4.32;;;;;;;;;;5022429;28;20042;-58
2023/06/19 08:33:13;;;;;;;7.67;4.73;;;;;;;;;;5011117;28;20049;-59
2023/06/19 08:35:40;;;;;;;6.70;3.90;;;;;;;;;;5011856;28;20428;-59
2023/06/19 08:38:06;;;;;;;4.10;3.55;;;;;;;;;;5017323;28;20518;-59
2023/06/19 08:40:33;;;;;;;4.88;3.20;;;;;;;;;;5017564;28;20060;-59
2023/06/19 08:42:59;;;;;;;3.95;3.05;;;;;;;;;;5010965;28;20046;-60
2023/06/19 08:45:27;;;;;;;3.92;2.97;;;;;;;;;;5010794;28;20049;-59
2023/06/19 08:48:00;;;;;;;3.20;2.90;;;;;;;;;;5009624;28;20045;-59
2023/06/19 08:50:26;;;;;;;3.22;2.63;;;;;;;;;;5011705;28;20061;-60
2023/06/19 08:52:54;;;;;;;2.97;2.50;;;;;;;;;;5009502;28;20045;-59
2023/06/19 08:55:20;;;;;;;4.10;2.50;;;;;;;;;;5011615;28;20040;-58
2023/06/19 08:57:49;;;;;;;4.85;3.00;;;;;;;;;;5011358;28;20042;-59
2023/06/19 09:00:35;;;;;;;4.53;3.13;;;;;;;;;;5011505;28;20430;-58
2023/06/19 09:03:02;;;;;;;5.13;3.20;;;;;;;;;;5007779;28;20037;-60
2023/06/19 09:05:29;;;;;;;4.85;3.30;;;;;;;;;;5010499;28;20046;-60
2023/06/19 09:08:03;;;;;;;4.38;3.30;;;;;;;;;;5005065;28;20534;-59
2023/06/19 09:10:33;;;;;;;3.45;3.15;;;;;;;;;;5021505;28;20049;-60
2023/06/19 09:13:01;;;;;;;4.13;3.50;;;;;;;;;;5010692;28;20034;-59
2023/06/19 09:15:34;;;;;;;5.97;3.60;;;;;;;;;;5008055;28;20030;-59
2023/06/19 09:18:02;;;;;;;5.28;3.80;;;;;;;;;;5007061;28;20061;-59
2023/06/19 09:20:28;;;;;;;4.90;3.72;;;;;;;;;;5011051;28;20033;-61
2023/06/19 09:22:58;;;;;;;5.13;3.72;;;;;;;;;;5010272;28;20068;-60
2023/06/19 09:25:26;;;;;;;4.20;3.78;;;;;;;;;;5011016;28;20053;-60
2023/06/19 09:27:56;;;;;;;4.50;3.80;;;;;;;;;;5021462;28;20417;-60
2023/06/19 09:30:22;;;;;;;4.13;3.72;;;;;;;;;;5018061;28;20077;-60
2023/06/19 09:32:49;;;;;;;5.53;3.85;;;;;;;;;;5003351;28;20076;-60
2023/06/19 09:35:15;;;;;;;6.43;4.00;;;;;;;;;;5011000;28;20041;-59
2023/06/19 09:37:41;;;;;;;8.05;4.35;;;;;;;;;;5014767;28;20038;-60
2023/06/19 09:40:10;;;;;;;5.97;4.50;;;;;;;;;;5028348;28;20064;-60
2023/06/19 09:42:42;;;;;;;4.43;4.03;;;;;;;;;;5008063;28;20038;-60
2023/06/19 09:45:19;;;;;;;4.88;3.75;;;;;;;;;;5016887;28;20037;-61
2023/06/19 09:47:46;;;;;;;4.10;3.70;;;;;;;;;;5008231;28;20046;-60
2023/06/19 09:50:15;;;;;;;6.10;3.90;;;;;;;;;;5009257;28;20038;-60
2023/06/19 09:52:43;;;;;;;5.53;3.63;;;;;;;;;;5017289;28;20037;-60
2023/06/19 09:55:14;;;;;;;4.97;3.45;;;;;;;;;;5008474;28;20040;-61
2023/06/19 09:57:43;;;;;;;5.63;4.43;;;;;;;;;;5010515;28;20129;-60
2023/06/19 10:00:16;;;;;;;;;;;;;;;;;;5010992;28;20582;-60
2023/06/19 10:02:45;;;;;;;5.78;3.70;;;;;;;;;;5018962;28;19917;-60
2023/06/19 10:05:14;;;;;;;4.10;3.47;;;;;;;;;;5010151;28;20066;-60
2023/06/19 10:07:45;;;;;;;4.68;4.15;;;;;;;;;;5010327;28;20049;-60
2023/06/19 10:10:22;;;;;;;6.07;4.40;;;;;;;;;;5009801;28;20053;-61
2023/06/19 10:12:48;;;;;;;4.63;4.22;;;;;;;;;;4996719;28;20452;-61
2023/06/19 10:15:20;;;;;;;5.68;4.00;;;;;;;;;;5000906;28;20487;-61
2023/06/19 10:17:49;;;;;;;4.70;3.83;;;;;;;;;;5005843;28;20038;-60
2023/06/19 10:20:25;;;;;;;3.60;2.75;;;;;;;;;;5008670;28;20052;-61
2023/06/19 10:22:57;;;;;;;6.78;3.58;;;;;;;;;;5012369;28;20496;-61
2023/06/19 10:25:24;;;;;;;3.10;2.65;;;;;;;;;;5014558;28;20056;-60
2023/06/19 10:27:52;;;;;;;4.63;2.70;;;;;;;;;;5007141;28;20054;-60
2023/06/19 10:30:19;;;;;;;4.38;3.17;;;;;;;;;;5008864;28;20050;-61
2023/06/19 10:32:46;;;;;;;3.58;3.28;;;;;;;;;;5006409;28;20034;-60
2023/06/19 10:35:14;;;;;;;3.10;2.80;;;;;;;;;;5016281;28;20560;-61
2023/06/19 10:37:40;;;;;;;2.75;2.47;;;;;;;;;;5014326;28;20052;-60
2023/06/19 10:40:09;;;;;;;3.95;2.90;;;;;;;;;;5016698;28;20069;-60
2023/06/19 10:42:40;;;;;;;3.30;2.90;;;;;;;;;;5007189;28;20045;-61
2023/06/19 10:45:08;;;;;;;3.10;2.80;;;;;;;;;;5010278;28;20041;-60
2023/06/19 10:47:37;;;;;;;3.80;2.70;;;;;;;;;;5019907;28;20065;-61
2023/06/19 10:50:03;;;;;;;3.85;2.92;;;;;;;;;;5004210;28;20054;-60
2023/06/19 10:52:30;;;;;;;2.97;2.63;;;;;;;;;;5008658;28;20042;-61
2023/06/19 10:54:57;;;;;;;2.88;2.50;;;;;;;;;;5007794;28;20034;-61
2023/06/19 10:57:30;;;;;;;3.83;3.05;;;;;;;;;;5010016;28;20042;-61
2023/06/19 10:59:58;;;;;;;3.40;2.70;;;;;;;;;;5009415;28;20050;-62
2023/06/19 11:02:25;;;;;;;3.77;2.97;;;;;;;;;;5006470;28;20394;-61
2023/06/19 11:04:55;;;;;;;3.33;2.97;;;;;;;;;;5017341;28;20628;-61
2023/06/19 11:07:24;;;;;;;3.50;3.13;;;;;;;;;;5009757;28;20064;-60
2023/06/19 11:09:50;;;;;;;3.90;3.45;;;;;;;;;;5009308;28;20530;-60
2023/06/19 11:12:21;;;;;;;4.07;3.28;;;;;;;;;;5008925;28;20038;-61
2023/06/19 11:14:49;;;;;;;3.92;3.40;;;;;;;;;;5021932;28;20372;-61
2023/06/19 11:17:18;;;;;;;3.78;3.47;;;;;;;;;;5009030;28;20030;-61
2023/06/19 11:19:44;;;;;;;4.50;3.50;;;;;;;;;;5008643;28;20038;-61
2023/06/19 11:22:11;;;;;;;6.18;3.67;;;;;;;;;;5006951;28;20577;-61
2023/06/19 11:24:42;;;;;;;6.55;3.67;;;;;;;;;;5017747;28;20044;-61
2023/06/19 11:27:17;;;;;;;3.78;3.28;;;;;;;;;;5011952;28;20103;-61
2023/06/19 11:29:43;;;;;;;4.75;3.50;;;;;;;;;;5013860;28;20069;-60
2023/06/19 11:32:13;;;;;;;4.18;3.67;;;;;;;;;;5011577;28;20042;-60
2023/06/19 11:34:40;;;;;;;4.22;3.83;;;;;;;;;;5018790;28;20034;-61
2023/06/19 11:37:20;;;;;;;5.43;3.60;;;;;;;;;;5014024;28;20042;-61
2023/06/19 11:39:50;;;;;;;4.13;3.72;;;;;;;;;;5018670;28;20041;-61
2023/06/19 11:42:18;;;;;;;4.60;3.63;;;;;;;;;;5012148;28;20030;-61
2023/06/19 11:45:02;;;;;;;4.00;3.60;;;;;;;;;;5011043;28;20029;-61
2023/06/19 11:47:33;;;;;;;5.30;3.92;;;;;;;;;;5010563;28;20054;-62
2023/06/19 11:50:03;;;;;;;4.30;3.85;;;;;;;;;;5011594;28;20658;-61
2023/06/19 11:52:29;;;;;;;6.72;3.53;;;;;;;;;;5016487;28;20065;-61
2023/06/19 11:54:56;;;;;;;4.50;4.10;;;;;;;;;;5023190;28;20555;-61
2023/06/19 11:57:23;;;;;;;6.78;4.25;;;;;;;;;;5012088;28;20519;-61
2023/06/19 11:59:49;;;;;;;10.60;4.00;;;;;;;;;;5012459;28;20407;-59
2023/06/19 12:02:15;;;;;;;5.80;4.30;;;;;;;;;;5011654;28;20073;-61
2023/06/19 12:04:41;;;;;;;4.40;4.00;;;;;;;;;;5009474;28;20069;-62
2023/06/19 12:07:07;;;;;;;4.15;3.72;;;;;;;;;;5011193;28;20040;-60
2023/06/19 12:09:34;;;;;;;5.05;4.55;;;;;;;;;;5012650;28;20037;-60
2023/06/19 12:12:02;;;;;;;4.38;3.80;;;;;;;;;;5012380;28;20562;-60
2023/06/19 12:14:28;;;;;;;4.10;3.70;;;;;;;;;;5011257;28;20104;-59
2023/06/19 12:16:54;;;;;;;4.43;3.70;;;;;;;;;;5012159;28;20435;-62
2023/06/19 12:19:20;;;;;;;3.80;3.38;;;;;;;;;;5005928;28;20038;-60
2023/06/19 12:21:47;;;;;;;4.45;3.92;;;;;;;;;;5006731;28;20522;-60
2023/06/19 12:24:13;;;;;;;4.20;3.80;;;;;;;;;;5025626;28;20049;-60
2023/06/19 12:26:39;;;;;;;5.15;3.90;;;;;;;;;;5026541;28;20045;-61
2023/06/19 12:29:07;;;;;;;4.40;4.00;;;;;;;;;;5012820;28;20038;-61
2023/06/19 12:31:34;;;;;;;4.80;3.78;;;;;;;;;;5011527;28;20033;-60
2023/06/19 12:34:03;;;;;;;4.72;4.20;;;;;;;;;;5001348;28;20053;-60
2023/06/19 12:36:31;;;;;;;5.10;4.00;;;;;;;;;;5003720;28;20041;-60
2023/06/19 12:38:59;;;;;;;5.35;4.35;;;;;;;;;;5021395;28;20037;-61
2023/06/19 12:41:26;;;;;;;4.47;3.92;;;;;;;;;;5009862;28;20061;-61
2023/06/19 12:43:52;;;;;;;5.00;3.67;;;;;;;;;;5023164;28;20029;-60
2023/06/19 12:46:18;;;;;;;5.30;3.90;;;;;;;;;;5012291;28;20038;-62
2023/06/19 12:48:50;;;;;;;4.47;3.72;;;;;;;;;;5021696;28;20270;-60
2023/06/19 12:51:17;;;;;;;4.13;3.58;;;;;;;;;;5012196;28;20391;-60
2023/06/19 12:53:44;;;;;;;4.05;3.65;;;;;;;;;;5011946;28;20045;-62
2023/06/19 12:56:10;;;;;;;4.35;3.95;;;;;;;;;;5011370;28;20056;-62
2023/06/19 12:58:36;;;;;;;5.95;4.30;;;;;;;;;;5016374;28;20037;-60
2023/06/19 13:01:02;;;;;;;4.43;4.03;;;;;;;;;;5017646;28;20034;-61
2023/06/19 13:03:28;;;;;;;4.40;3.83;;;;;;;;;;5011358;28;20049;-60
2023/06/19 13:05:54;;;;;;;5.50;4.18;;;;;;;;;;5011869;28;20034;-61
2023/06/19 13:08:21;;;;;;;6.85;4.20;;;;;;;;;;5011438;28;20037;-62
2023/06/19 13:10:47;;;;;;;5.25;4.20;;;;;;;;;;5010420;28;20041;-61
2023/06/19 13:13:13;;;;;;;5.45;4.13;;;;;;;;;;5010606;28;20053;-61
2023/06/19 13:15:39;;;;;;;4.20;3.80;;;;;;;;;;5009731;28;20041;-60
2023/06/19 13:18:06;;;;;;;4.40;4.00;;;;;;;;;;5009729;28;20065;-61
2023/06/19 13:20:32;;;;;;;5.80;4.45;;;;;;;;;;5010760;28;20049;-61
2023/06/19 13:22:58;;;;;;;4.43;4.03;;;;;;;;;;5010765;28;20045;-60
2023/06/19 13:25:24;;;;;;;5.03;4.45;;;;;;;;;;5011612;28;20058;-60
2023/06/19 13:27:50;;;;;;;5.05;4.10;;;;;;;;;;5010921;28;20034;-61
2023/06/19 13:30:16;;;;;;;4.60;4.15;;;;;;;;;;5010966;28;20057;-60
2023/06/19 13:32:42;;;;;;;7.93;4.40;;;;;;;;;;5010080;28;20042;-60
2023/06/19 13:35:10;;;;;;;5.10;4.07;;;;;;;;;;5010950;28;20500;-60
2023/06/19 13:37:40;;;;;;;4.97;4.40;;;;;;;;;;5014816;28;20041;-59
2023/06/19 13:40:07;;;;;;;5.10;4.55;;;;;;;;;;5018300;28;20041;-62
2023/06/19 13:42:35;;;;;;;6.22;4.68;;;;;;;;;;5006075;28;20031;-60
2023/06/19 13:45:02;;;;;;;5.85;4.43;;;;;;;;;;5006649;28;20467;-60
2023/06/19 13:47:28;;;;;;;5.82;4.55;;;;;;;;;;5008967;28;20049;-61
2023/06/19 13:49:54;;;;;;;5.35;4.30;;;;;;;;;;5001651;28;20042;-61
2023/06/19 13:52:21;;;;;;;5.35;4.30;;;;;;;;;;5019973;28;20038;-60
2023/06/19 13:54:47;;;;;;;4.80;4.30;;;;;;;;;;5011872;28;20045;-60
2023/06/19 13:57:13;;;;;;;5.45;4.32;;;;;;;;;;5011033;28;20038;-61
2023/06/19 13:59:39;;;;;;;8.05;4.82;;;;;;;;;;5010693;28;20041;-60
2023/06/19 14:02:05;;;;;;;6.45;4.50;;;;;;;;;;5009561;28;20038;-60
2023/06/19 14:04:32;;;;;;;5.32;4.18;;;;;;;;;;5011084;28;20045;-61
2023/06/19 14:07:00;;;;;;;5.05;4.55;;;;;;;;;;5010605;28;20038;-62
2023/06/19 14:09:27;;;;;;;5.20;4.63;;;;;;;;;;5009300;28;20038;-61
2023/06/19 14:11:53;;;;;;;6.78;4.20;;;;;;;;;;5009671;28;20065;-62
2023/06/19 14:14:19;;;;;;;7.15;4.35;;;;;;;;;;5010591;28;20048;-61
2023/06/19 14:16:45;;;;;;;5.38;4.15;;;;;;;;;;5009905;28;20399;-61
2023/06/19 14:19:12;;;;;;;5.03;4.53;;;;;;;;;;5010051;28;20030;-60
2023/06/19 14:21:38;;;;;;;5.40;4.28;;;;;;;;;;5009789;28;20662;-61
2023/06/19 14:24:04;;;;;;;5.50;4.90;;;;;;;;;;5009258;28;20045;-62
2023/06/19 14:26:30;;;;;;;6.20;5.05;;;;;;;;;;5009916;28;20046;-61
2023/06/19 14:28:58;;;;;;;5.72;4.68;;;;;;;;;;5010259;28;20117;-61
2023/06/19 14:31:24;;;;;;;5.25;4.75;;;;;;;;;;5009528;28;20042;-61
2023/06/19 14:33:51;;;;;;;5.05;4.55;;;;;;;;;;5009715;28;20050;-62
2023/06/19 14:36:17;;;;;;;7.65;5.07;;;;;;;;;;5009992;28;20497;-61